Airfield :
LOGIN :

Register | Disclaimer

   EN    FR    IT 

 










Legend :    VFR   Marginal VFR   IFR   Intensive IFR   Very Intensive IFR
Visi :
Ceiling :
>= 8 km
>= 3000ft
5 to 8 km
1000 to 3000 ft
1500m to 5 km
500 to 1000 ft
800 to 1500m
200 to 500 ft
< 800m
< 200 ft
Symbols :   Thunderstorms  Fog  Heavy snow  Heavy precipitations  Wind > 20 kt
SIGMETs :     Misc.  Thunderstorms  Icing  Turbulence  Mountain Waves  Volcanic Ashes






- Airport Elevation : 10 ft
- IATA code : AAL


EKYT - Aalborg

CURRENT METAR :
  • 050950Z AUTO 18013KT 9999 NCD 13/02 Q1028

EXPIRED METARs :
  • 050920Z AUTO 20011KT 9999 NCD 13/02 Q1028
  • 050850Z AUTO 18011KT 9999 NCD 12/04 Q1028
  • 050821Z 19010KT 160V220 CAVOK 11/03 Q1028
  • 050750Z 19011KT CAVOK 10/03 Q1028
  • 050720Z 18009KT CAVOK 09/04 Q1028

TAF TAF EKYT
Valid from the 05 at 09:00 until the 06 at 09:00 UTC


050809Z 0509/0609 19010KT 9999 BKN200
TEMPO 0509/0517 17012G25KT
BECMG 0517/0519 14010KT



MET'MAP, your aeronautical weather chart ! - Copyright ORBIFLY December 2007 - Disclaimer

ORBIFLY MET'MAP TEAM :

Programming & Development : Alexandra Zaïnal
Concept & original design : Baudouin d'Aumeries
Assistance for programming : Marc-Olivier Méhu
Technical & hardware support : Manuel Goepfert

Contact : metmap@orbifly.com




SOURCES & CREDITS :

   NOAA